Latest Weather Observations for Albany Airport

IDW60801

Issued at 11:03 pm WST Sunday 26 June 2016 (issued every 30 minutes, with the page automatically refreshed every 10 minutes)

About weather observations | Map of weather stations | Latest weather observations for WA | Other Formats
Station Details ID: 009999 Name: ALBANY AIRPORT Lat: -34.94 Lon: 117.82 Height: 68.4 m
Data from the previous 72 hours. | See also: Recent months at Albany Airport
Date/Time
WST
Temp
°C
App
Temp
°C
Dew
Point
°C
Rel
Hum
%
Delta-T
°C
Wind Press
QNH
hPa
Press
MSL
hPa
Rain since
9am
mm
Dir  Spd
km/h
Gust
km/h
Spd
kts
Gust
kts
26/11:00pm 10.3 5.8 6.9 79 1.6 NNW 20 28 11 15 1019.8 - 0.0
26/10:30pm 9.6 6.0 6.8 83 1.3 NNW 15 20 8 11 1019.9 - 0.0
26/10:00pm 10.5 6.5 6.7 77 1.8 NNW 17 20 9 11 1020.0 - 0.0
26/09:30pm 10.5 6.1 6.7 77 1.8 NNW 19 24 10 13 1020.0 - 0.0
26/09:00pm 10.1 6.0 6.2 77 1.8 NNW 17 26 9 14 1020.1 1020.3 0.0
26/08:30pm 9.3 5.9 6.0 80 1.5 NNW 13 17 7 9 1020.2 - 0.0
26/08:00pm 9.5 6.6 6.3 80 1.5 NNW 11 15 6 8 1020.1 - 0.0
26/07:30pm 11.4 7.3 6.3 71 2.4 NW 17 24 9 13 1020.3 - 0.0
26/07:00pm 11.3 7.2 6.2 71 2.4 NW 17 22 9 12 1020.4 - 0.0
26/06:30pm 12.3 7.6 5.9 65 3.0 NW 20 28 11 15 1020.2 - 0.0
26/06:00pm 11.7 8.1 6.6 71 2.4 NW 15 19 8 10 1020.0 1020.2 0.0
26/05:30pm 11.9 9.3 7.6 75 2.1 NNW 11 17 6 9 1019.8 - 0.0
26/05:00pm 11.5 8.1 7.8 78 1.8 N 15 17 8 9 1019.5 - 0.0
26/04:30pm 13.4 10.0 7.7 68 2.8 NNW 15 17 8 9 1019.7 - 0.0
26/04:00pm 14.3 10.5 7.4 63 3.4 WNW 17 24 9 13 1020.0 - 0.0
26/03:30pm 14.6 9.8 7.5 62 3.5 WNW 22 28 12 15 1020.1 - 0.0
26/03:00pm 14.9 10.0 6.7 58 4.0 W 22 28 12 15 1020.0 1020.2 0.0
26/02:30pm 15.1 10.0 5.9 54 4.4 WNW 22 32 12 17 1019.9 - 0.0
26/02:00pm 15.0 8.4 6.1 55 4.3 WNW 30 39 16 21 1019.9 - 0.0
26/01:30pm 15.3 10.7 5.7 52 4.6 WNW 19 24 10 13 1020.1 - 0.0
26/01:00pm 14.9 9.4 5.9 55 4.3 NW 24 32 13 17 1020.4 - 0.0
26/12:30pm 14.7 9.2 5.9 55 4.2 NW 24 32 13 17 1020.8 - 0.0
26/12:00pm 15.5 10.1 6.4 54 4.4 NW 24 32 13 17 1021.2 1021.4 0.0
26/11:30am 15.7 9.4 5.9 52 4.7 WNW 28 43 15 23 1021.7 - 0.0
26/11:00am 14.5 9.1 7.9 64 3.3 NW 26 37 14 20 1022.0 - 0.0
26/10:30am 12.9 8.2 7.8 71 2.5 NW 22 32 12 17 1022.3 - 0.0
26/10:00am 11.7 7.3 7.6 76 2.0 NW 20 28 11 15 1022.5 - 0.0
26/09:30am 10.9 6.0 7.1 77 1.8 NW 22 28 12 15 1022.4 - 0.0
26/09:00am 9.5 5.4 6.3 80 1.5 NW 17 20 9 11 1022.5 1022.7 1.0
26/08:30am 8.9 5.2 6.1 82 1.3 NW 15 20 8 11 1022.4 - 1.0
26/08:00am 8.8 4.3 6.2 84 1.2 NW 19 20 10 11 1022.4 - 1.0
26/07:30am 7.4 4.0 5.8 90 0.7 WNW 13 17 7 9 1022.5 - 1.0
26/07:00am 7.6 4.6 5.8 88 0.8 NNW 11 15 6 8 1022.1 - 1.0
26/06:30am 7.9 5.0 6.6 91 0.6 NW 11 17 6 9 1022.1 - 1.0
26/06:00am 7.8 4.9 6.5 91 0.6 NW 11 15 6 8 1021.9 1022.1 1.0
26/05:30am 6.9 3.9 6.2 95 0.3 NW 11 13 6 7 1021.7 - 1.0
26/05:00am 6.6 3.3 6.2 97 0.2 WNW 13 15 7 8 1021.6 - 1.0
26/04:30am 6.9 3.1 6.0 94 0.4 WNW 15 17 8 9 1021.7 - 1.0
26/04:00am 7.3 4.0 6.4 94 0.4 NW 13 17 7 9 1021.6 - 1.0
26/03:30am 7.0 3.3 6.1 94 0.4 WNW 15 19 8 10 1021.7 - 1.0
26/03:00am 6.9 3.1 6.0 94 0.4 WNW 15 17 8 9 1021.8 1022.0 1.0
26/02:30am 7.2 3.1 6.3 94 0.4 WNW 17 20 9 11 1021.9 - 1.0
26/02:00am 6.9 3.1 5.8 93 0.5 NW 15 17 8 9 1022.1 - 1.0
26/01:30am 6.7 2.9 5.8 94 0.4 NW 15 19 8 10 1022.1 - 1.0
26/01:00am 6.9 3.1 6.0 94 0.4 NW 15 17 8 9 1022.0 - 1.0
26/12:30am 7.0 3.2 5.9 93 0.5 NW 15 17 8 9 1021.9 - 1.0
26/12:00am 7.7 4.4 6.6 93 0.5 NW 13 17 7 9 1022.0 1022.2 1.0
 
Date/Time
WST
Temp
°C
App
Temp
°C
Dew
Point
°C
Rel
Hum
%
Delta-T
°C
Wind Press
QNH
hPa
Press
MSL
hPa
Rain since
9am
mm
Dir  Spd
km/h
Gust
km/h
Spd
kts
Gust
kts
25/11:30pm 7.1 3.8 6.4 95 0.3 NW 13 17 7 9 1022.2 - 0.8
25/11:00pm 6.7 4.0 5.8 94 0.4 NNW 9 13 5 7 1022.3 - 0.8
25/10:30pm 8.4 6.1 7.6 95 0.4 W 9 11 5 6 1022.3 - 0.8
25/10:00pm 7.1 3.8 6.4 95 0.3 WNW 13 15 7 8 1022.1 - 0.8
25/09:30pm 7.4 4.1 6.5 94 0.4 WNW 13 17 7 9 1022.0 - 0.8
25/09:00pm 8.4 4.9 7.1 91 0.6 WNW 15 20 8 11 1022.1 1022.3 0.8
25/08:30pm 7.8 4.3 7.2 96 0.3 WNW 15 20 8 11 1022.1 - 0.8
25/08:00pm 7.0 4.6 6.8 99 0.1 NW 9 9 5 5 1022.0 - 0.8
25/07:30pm 8.3 6.3 7.0 91 0.6 N 7 9 4 5 1021.8 - 0.8
25/07:13pm 9.4 7.5 7.7 89 0.8 WNW 7 9 4 5 1021.7 - 0.8
25/07:00pm 10.1 7.2 8.2 88 0.9 W 13 19 7 10 1021.8 - 0.8
25/06:59pm 10.1 7.2 8.2 88 0.9 W 13 19 7 10 1021.8 - 0.8
25/06:30pm 8.9 6.2 7.2 89 0.8 WNW 11 15 6 8 1021.3 - 0.6
25/06:00pm 9.4 6.4 7.7 89 0.8 WNW 13 15 7 8 1021.0 1021.2 0.6
25/05:30pm 9.2 6.2 7.7 90 0.7 WNW 13 15 7 8 1020.6 - 0.6
25/05:00pm 11.6 8.6 7.7 77 1.9 W 13 17 7 9 1020.2 - 0.6
25/04:30pm 13.2 10.0 6.8 65 3.1 WSW 13 17 7 9 1020.0 - 0.6
25/04:00pm 13.4 9.9 7.0 65 3.1 WSW 15 20 8 11 1019.7 - 0.6
25/03:30pm 12.4 8.9 7.0 69 2.6 SW 15 33 8 18 1019.4 - 0.4
25/03:00pm 14.1 12.0 8.3 68 2.9 WSW 9 11 5 6 1019.0 1019.2 0.4
25/02:30pm 11.9 6.5 8.2 78 1.8 SSW 26 43 14 23 1018.9 - 0.4
25/02:21pm 12.7 6.8 7.6 71 2.5 SW 28 43 15 23 1018.7 - 0.4
25/02:00pm 14.9 10.0 4.0 48 5.0 SW 19 24 10 13 1018.5 - 0.4
25/01:30pm 13.4 10.4 7.9 69 2.7 SW 13 19 7 10 1018.5 - 0.2
25/01:00pm 13.5 9.5 6.6 63 3.3 SW 17 30 9 16 1018.4 - 0.2
25/12:30pm 13.3 9.8 7.4 67 2.9 SSW 15 22 8 12 1018.5 - 0.2
25/12:00pm 13.0 4.7 7.7 70 2.6 SW 41 50 22 27 1018.3 1018.5 0.0
25/11:30am 14.8 9.8 4.5 50 4.8 SW 20 30 11 16 1018.1 - 0.0
25/11:00am 14.1 9.5 6.4 60 3.7 SW 20 28 11 15 1018.3 - 0.0
25/10:30am 14.0 9.5 6.8 62 3.5 SSW 20 32 11 17 1018.3 - 0.0
25/10:00am 13.1 9.7 7.8 70 2.6 SSW 15 19 8 10 1018.2 - 0.0
25/09:30am 13.1 11.2 8.9 75 2.1 WSW 9 13 5 7 1017.7 - 0.0
25/09:00am 11.6 9.4 9.2 85 1.2 W 11 13 6 7 1017.3 1017.5 12.6
25/08:30am 11.2 8.6 9.2 87 1.0 SW 13 19 7 10 1017.0 - 12.6
25/08:00am 10.2 8.1 9.8 97 0.2 WNW 11 13 6 7 1016.4 - 12.6
25/07:30am 10.4 8.3 9.6 95 0.4 W 11 13 6 7 1015.9 - 12.6
25/07:00am 10.5 8.9 10.1 97 0.2 W 9 9 5 5 1015.6 - 12.4
25/06:42am 10.7 8.7 10.3 97 0.2 WSW 11 15 6 8 1015.3 - 12.2
25/06:30am 10.8 8.5 10.4 97 0.2 WSW 13 20 7 11 1015.2 - 12.0
25/06:24am 10.7 7.6 10.3 97 0.2 WSW 17 24 9 13 1015.1 - 11.8
25/06:00am 10.8 8.1 10.4 97 0.2 W 15 20 8 11 1014.6 1014.8 8.8
25/05:52am 10.8 7.4 10.4 97 0.2 W 19 26 10 14 1014.4 - 8.0
25/05:30am 10.8 7.1 10.2 96 0.3 WNW 20 26 11 14 1013.8 - 3.2
25/05:05am 10.8 7.6 9.8 93 0.5 WNW 17 20 9 11 1013.3 - 0.8
25/05:01am 10.9 7.6 9.7 92 0.6 WNW 17 22 9 12 1013.2 - 0.6
25/05:00am 10.8 7.6 9.8 93 0.5 WNW 17 22 9 12 1013.2 - 0.6
25/04:38am 10.8 7.8 9.4 91 0.7 NW 15 19 8 10 1012.9 - 0.4
25/04:30am 11.0 8.0 9.2 89 0.9 WNW 15 19 8 10 1012.9 - 0.0
25/04:00am 10.5 6.6 8.7 89 0.9 NNW 19 26 10 14 1012.4 - 0.0
25/03:30am 10.8 6.7 8.6 86 1.1 NNW 20 30 11 16 1012.8 - 0.0
25/03:00am 10.6 6.4 8.4 86 1.1 NNW 20 26 11 14 1012.9 1013.0 0.0
25/02:30am 10.6 6.9 8.1 84 1.2 NNW 17 24 9 13 1013.4 - 0.0
25/02:00am 10.3 6.0 8.0 86 1.1 N 20 28 11 15 1013.4 - 0.0
25/01:30am 10.1 5.7 7.6 84 1.2 NNW 20 28 11 15 1013.8 - 0.0
25/01:00am 10.0 5.6 7.3 83 1.3 N 20 28 11 15 1013.7 - 0.0
25/12:30am 9.4 5.1 6.8 84 1.2 N 19 22 10 12 1013.7 - 0.0
25/12:00am 9.8 5.5 6.8 81 1.4 N 19 24 10 13 1014.1 1014.2 0.0
 
Date/Time
WST
Temp
°C
App
Temp
°C
Dew
Point
°C
Rel
Hum
%
Delta-T
°C
Wind Press
QNH
hPa
Press
MSL
hPa
Rain since
9am
mm
Dir  Spd
km/h
Gust
km/h
Spd
kts
Gust
kts
24/11:30pm 10.2 4.9 6.8 79 1.6 NNW 24 30 13 16 1014.2 - 0.0
24/11:00pm 10.2 5.3 6.8 79 1.6 NNW 22 28 12 15 1014.3 - 0.0
24/10:30pm 10.1 5.6 6.9 80 1.5 NNW 20 28 11 15 1014.5 - 0.0
24/10:00pm 10.4 5.9 6.8 78 1.7 N 20 26 11 14 1014.8 - 0.0
24/09:30pm 10.5 5.9 6.7 77 1.8 N 20 26 11 14 1014.8 - 0.0
24/09:00pm 10.7 6.7 6.7 76 1.9 N 17 22 9 12 1015.0 1015.2 0.0
24/08:30pm 10.4 6.5 7.0 79 1.6 N 17 19 9 10 1015.2 - 0.0
24/08:00pm 9.9 6.8 7.2 83 1.3 N 13 15 7 8 1015.3 - 0.0
24/07:30pm 11.3 7.8 7.4 77 1.9 NNW 15 20 8 11 1015.5 - 0.0
24/07:00pm 12.4 8.5 7.2 70 2.5 N 17 22 9 12 1015.4 - 0.0
24/06:30pm 12.4 8.9 7.0 69 2.6 N 15 19 8 10 1015.2 - 0.0
24/06:00pm 11.9 8.9 7.6 75 2.1 N 13 15 7 8 1015.2 1015.4 0.0
24/05:30pm 12.1 9.1 7.6 74 2.2 N 13 15 7 8 1015.0 - 0.0
24/05:00pm 13.1 10.1 7.6 69 2.7 NNW 13 17 7 9 1014.9 - 0.0
24/04:30pm 13.6 10.2 7.5 66 3.0 N 15 20 8 11 1014.9 - 0.0
24/04:00pm 14.3 10.5 7.4 63 3.4 NNW 17 24 9 13 1015.0 - 0.0
24/03:30pm 14.7 10.3 7.2 61 3.7 NNW 20 26 11 14 1014.8 - 0.0
24/03:00pm 14.7 10.8 6.9 59 3.8 NNW 17 26 9 14 1015.0 1015.2 0.0
24/02:30pm 15.6 11.1 6.1 53 4.6 NNW 19 26 10 14 1015.1 - 0.0
24/02:00pm 15.3 10.4 5.2 51 4.8 NNW 20 28 11 15 1015.4 - 0.0
24/01:30pm 14.6 10.0 5.5 54 4.3 NNW 19 24 10 13 1015.8 - 0.0
24/01:00pm 14.5 10.3 5.9 56 4.1 NNW 17 22 9 12 1016.4 - 0.0
24/12:30pm 14.3 9.4 5.1 54 4.3 NNW 20 28 11 15 1016.8 - 0.0
24/12:00pm 14.3 9.6 5.9 57 4.0 N 20 26 11 14 1017.4 1017.6 0.0
24/11:30am 13.1 8.6 5.9 61 3.4 N 19 26 10 14 1018.0 - 0.0
24/11:00am 12.1 7.5 5.7 65 3.0 N 19 26 10 14 1018.7 - 0.0
24/10:30am 11.4 6.9 6.1 70 2.5 N 19 24 10 13 1019.2 - 0.0
24/10:00am 10.6 6.5 6.1 74 2.1 N 17 24 9 13 1019.5 - 0.0
24/09:30am 9.8 5.6 5.6 75 1.9 N 17 20 9 11 1019.5 - 0.0
24/09:00am 8.9 5.4 5.4 79 1.6 N 13 17 7 9 1019.6 1019.8 0.0
24/08:30am 7.0 4.2 5.0 87 0.9 N 9 11 5 6 1019.5 - 0.0
24/08:00am 5.0 1.9 3.8 92 0.5 N 9 11 5 6 1019.4 - 0.0
24/07:30am 3.9 1.2 2.9 93 0.4 N 6 7 3 4 1019.3 - 0.0
24/07:00am 3.3 1.0 2.5 94 0.3 NNE 4 7 2 4 1019.3 - 0.0
24/06:30am 3.2 -0.1 2.7 96 0.2 NNE 9 9 5 5 1019.3 - 0.0
24/06:00am 4.6 1.8 2.9 89 0.7 N 7 9 4 5 1019.3 1019.5 0.0
24/05:30am 6.1 2.6 3.7 84 1.0 NNW 11 13 6 7 1019.5 - 0.0
24/05:00am 6.0 2.6 3.9 86 0.9 NNW 11 13 6 7 1019.4 - 0.0
24/04:30am 7.2 3.5 4.2 81 1.3 NNW 13 17 7 9 1019.5 - 0.0
24/04:00am 7.9 4.6 4.7 80 1.4 NW 11 15 6 8 1019.6 - 0.0
24/03:30am 7.5 4.3 5.0 84 1.1 NW 11 15 6 8 1019.7 - 0.0
24/03:00am 7.9 4.3 5.2 83 1.2 NNW 13 17 7 9 1019.8 1020.0 0.0
24/02:30am 6.9 4.8 5.6 91 0.6 NW 6 11 3 6 1020.0 - 0.0
24/02:00am 6.1 5.0 5.2 94 0.4 CALM 0 6 0 3 1020.1 - 0.0
24/01:30am 6.5 4.1 5.1 91 0.6 N 7 9 4 5 1020.2 - 0.0
24/01:00am 6.9 4.6 5.8 93 0.5 N 7 9 4 5 1020.5 - 0.0
24/12:30am 8.6 6.0 6.2 85 1.1 NW 9 11 5 6 1020.7 - 0.0
24/12:00am 8.9 6.4 6.5 85 1.1 NW 9 13 5 7 1020.8 1021.0 0.0
 
Date/Time
WST
Temp
°C
App
Temp
°C
Dew
Point
°C
Rel
Hum
%
Delta-T
°C
Wind Press
QNH
hPa
Press
MSL
hPa
Rain since
9am
mm
Dir  Spd
km/h
Gust
km/h
Spd
kts
Gust
kts
23/11:30pm 9.0 5.7 6.4 84 1.2 NW 13 15 7 8 1021.1 - 0.0

Other Formats:

Comma delimited format used in spreadsheet applications
http://www.bom.gov.au/fwo/IDW60801/IDW60801.94802.axf

JavaScript Object Notation format (JSON) in row-major order
http://www.bom.gov.au/fwo/IDW60801/IDW60801.94802.json